Brimfield, Indiana
Current Conditions -  °F | °C
As of 5:15 AM on Saturday 22 Nov 2014 (Local Time) from KGWB Reporting Station
Unknown Precip Unknown Precip  
Wind Chill: 26°   Ceiling: 1700
Heat Index: 32°   Visibility: 3mi
Dew Point: 28°   Wind: 7mph
Humidity: 87%   Direction: 190°S
Pressure: 30.17"   Gusts: NA
Location:  41.45°N, 85.4°W
Report Text: KGWB 221015Z AUTO 19006KT 3SM UP BKN017 BKN021 OVC030 00/M02 A3017 RMK AO2 P0001
Loading
Personal Weather Stations






























Interactive Weather Map New forecast layout! Learn more

10-Day Weather Forecast

Advertisements
Track Severe Weather on mobile